Time;durP1;ratioP1;P1;durP2;ratioP2;P2;SDS_P1;SDS_P2;PMS_P1;PMS_P2;Temp;Humidity;BMP_temperature;BMP_pressure;BME280_temperature;BME280_humidity;BME280_pressure;Samples;Min_cycle;Max_cycle;Signal;HPM_P1;HPM_P2
2023/03/23 00:01:19;;;;;;;5.55;3.17;;;5.40;99.90;;;;;;8184174;28;20051;-77
2023/03/23 00:05:20;;;;;;;6.75;3.35;;;5.50;99.90;;;;;;8184542;28;20035;-77
2023/03/23 00:09:23;;;;;;;5.00;3.08;;;5.60;99.90;;;;;;8201260;28;20520;-76
2023/03/23 00:13:24;;;;;;;6.10;2.95;;;6.60;99.90;;;;;;8201944;28;20027;-76
2023/03/23 00:17:25;;;;;;;4.95;3.08;;;6.40;99.90;;;;;;8201519;28;20642;-77
2023/03/23 00:21:34;;;;;;;4.75;2.95;;;6.10;99.90;;;;;;8201895;28;20027;-78
2023/03/23 00:25:34;;;;;;;7.80;3.03;;;6.00;99.90;;;;;;8186788;28;20114;-77
2023/03/23 00:29:35;;;;;;;5.40;2.70;;;5.50;99.90;;;;;;8188086;28;20523;-76
2023/03/23 00:33:43;;;;;;;5.95;2.85;;;5.40;99.90;;;;;;8200750;28;20487;-77
2023/03/23 00:37:43;;;;;;;7.30;3.72;;;5.80;99.90;;;;;;8184832;28;20458;-77
2023/03/23 00:41:45;;;;;;;5.28;3.25;;;6.10;99.90;;;;;;8183526;28;20090;-77
2023/03/23 00:45:52;;;;;;;6.53;3.75;;;5.90;99.90;;;;;;8182777;28;20078;-77
2023/03/23 00:49:55;;;;;;;7.68;3.47;;;5.90;99.90;;;;;;8199205;28;20039;-77
2023/03/23 00:53:56;;;;;;;6.38;3.55;;;5.90;99.90;;;;;;8197192;28;20019;-77
2023/03/23 00:57:56;;;;;;;5.32;3.55;;;5.90;99.90;;;;;;8199770;28;20043;-77
2023/03/23 01:01:57;;;;;;;6.97;3.50;;;6.10;99.90;;;;;;8200358;28;20559;-77
2023/03/23 01:05:57;;;;;;;7.65;3.47;;;6.00;99.90;;;;;;8190275;28;20035;-77
2023/03/23 01:10:01;;;;;;;7.50;3.80;;;6.10;99.90;;;;;;8183011;28;20139;-77
2023/03/23 01:14:02;;;;;;;4.72;2.97;;;6.00;99.90;;;;;;8183538;28;20031;-77
2023/03/23 01:18:03;;;;;;;6.53;3.60;;;6.00;99.90;;;;;;8207753;28;20050;-77
2023/03/23 01:22:04;;;;;;;5.68;3.45;;;5.90;99.90;;;;;;8184001;28;20489;-77
2023/03/23 01:26:13;;;;;;;6.03;3.35;;;5.90;99.90;;;;;;8181850;28;20027;-77
2023/03/23 01:30:14;;;;;;;7.45;3.80;;;5.90;99.90;;;;;;8199761;28;20031;-77
2023/03/23 01:34:15;;;;;;;5.57;3.30;;;6.20;99.90;;;;;;8198948;28;20460;-77
2023/03/23 01:38:15;;;;;;;5.65;3.15;;;6.50;99.90;;;;;;8198442;28;20038;-76
2023/03/23 01:42:17;;;;;;;7.03;3.63;;;6.70;99.90;;;;;;8191401;28;20035;-77
2023/03/23 01:46:17;;;;;;;7.40;3.58;;;7.00;99.90;;;;;;8198605;28;20031;-77
2023/03/23 01:50:22;;;;;;;7.57;3.60;;;7.20;99.90;;;;;;8181108;28;20028;-77
2023/03/23 01:54:24;;;;;;;6.88;3.80;;;7.10;99.90;;;;;;8181405;28;20213;-77
2023/03/23 01:58:30;;;;;;;8.35;3.72;;;7.10;99.90;;;;;;8181283;28;20110;-77
2023/03/23 02:02:32;;;;;;;5.43;3.53;;;7.20;99.90;;;;;;8197787;28;20027;-77
2023/03/23 02:06:33;;;;;;;6.63;3.83;;;7.50;99.90;;;;;;8198498;28;20110;-77
2023/03/23 02:10:35;;;;;;;6.00;3.90;;;7.30;99.90;;;;;;8182843;28;20039;-76
2023/03/23 02:14:36;;;;;;;8.75;3.88;;;7.20;99.90;;;;;;8181539;28;20038;-77
2023/03/23 02:18:47;;;;;;;7.90;4.13;;;7.50;99.90;;;;;;8179601;28;20036;-77
2023/03/23 02:23:11;;;;;;;8.25;3.80;;;7.50;99.90;;;;;;8183389;28;20023;-77
2023/03/23 02:27:47;;;;;;;8.77;4.50;;;7.20;99.90;;;;;;8181424;28;20038;-77
2023/03/23 02:32:08;;;;;;;7.00;4.32;;;7.10;99.90;;;;;;8198603;28;20103;-77
2023/03/23 02:36:11;;;;;;;;;;;7.00;99.90;;;;;;8208410;28;20444;-77
2023/03/23 02:40:17;;;;;;;7.25;3.67;;;7.10;99.90;;;;;;8204535;28;19921;-78
2023/03/23 02:44:18;;;;;;;7.45;4.15;;;7.10;99.90;;;;;;8186893;28;20097;-77
2023/03/23 02:48:22;;;;;;;6.13;3.83;;;7.20;99.90;;;;;;8186390;28;20035;-77
2023/03/23 02:52:34;;;;;;;7.82;4.05;;;7.30;99.90;;;;;;8186383;28;20487;-76
2023/03/23 02:56:35;;;;;;;6.75;3.83;;;7.20;99.90;;;;;;8186666;28;20035;-78
2023/03/23 03:00:38;;;;;;;8.88;4.22;;;7.30;99.90;;;;;;8203101;28;20055;-77
2023/03/23 03:04:41;;;;;;;5.97;3.80;;;7.70;99.90;;;;;;8203483;28;20027;-76
2023/03/23 03:09:11;;;;;;;7.78;4.20;;;8.20;99.90;;;;;;8186758;28;20062;-76
2023/03/23 03:13:33;;;;;;;6.05;3.42;;;8.10;99.90;;;;;;8210872;28;20030;-77
2023/03/23 03:17:40;;;;;;;4.53;3.35;;;7.90;99.90;;;;;;8211584;28;20520;-77
2023/03/23 03:21:43;;;;;;;6.22;3.88;;;7.70;99.90;;;;;;8187487;28;20023;-77
2023/03/23 03:25:47;;;;;;;5.93;3.42;;;7.90;99.90;;;;;;8202960;28;20030;-76
2023/03/23 03:29:53;;;;;;;7.93;4.05;;;8.10;99.90;;;;;;8203666;28;20022;-77
2023/03/23 03:33:54;;;;;;;6.93;3.97;;;8.10;99.90;;;;;;8204125;28;20484;-77
2023/03/23 03:37:55;;;;;;;8.10;4.10;;;8.00;99.90;;;;;;8186356;28;20059;-77
2023/03/23 03:41:56;;;;;;;6.60;4.40;;;8.10;99.90;;;;;;8203665;28;20043;-76
2023/03/23 03:45:56;;;;;;;7.13;4.13;;;8.40;99.90;;;;;;8200760;28;20054;-76
2023/03/23 03:49:57;;;;;;;7.70;3.58;;;8.40;99.90;;;;;;8200817;28;20037;-77
2023/03/23 03:53:57;;;;;;;2.67;1.45;;;8.40;99.90;;;;;;8198823;28;20444;-76
2023/03/23 03:57:58;;;;;;;5.00;2.70;;;8.90;99.90;;;;;;8200691;28;20058;-76
2023/03/23 04:01:59;;;;;;;6.50;3.38;;;9.50;99.90;;;;;;8184967;28;20042;-76
2023/03/23 04:06:00;;;;;;;6.15;3.58;;;9.80;99.90;;;;;;8207700;28;20034;-76
2023/03/23 04:10:00;;;;;;;6.38;2.90;;;9.80;99.90;;;;;;8203451;28;20038;-76
2023/03/23 04:14:02;;;;;;;4.07;2.65;;;9.70;99.90;;;;;;8189677;28;20027;-77
2023/03/23 04:18:03;;;;;;;4.50;3.03;;;9.90;99.90;;;;;;8207728;28;20102;-77
2023/03/23 04:22:05;;;;;;;6.03;2.60;;;10.10;99.90;;;;;;8200910;28;20038;-76
2023/03/23 04:26:05;;;;;;;6.50;3.20;;;10.20;99.90;;;;;;8184385;28;20039;-77
2023/03/23 04:30:07;;;;;;;5.10;3.10;;;10.30;99.90;;;;;;8191511;28;20031;-77
2023/03/23 04:34:07;;;;;;;5.70;2.72;;;10.30;99.90;;;;;;8197986;28;20039;-77
2023/03/23 04:38:09;;;;;;;5.22;2.95;;;10.40;99.90;;;;;;8189473;28;20039;-77
2023/03/23 04:42:11;;;;;;;5.03;2.88;;;10.50;99.90;;;;;;8188472;28;20090;-76
2023/03/23 04:46:11;;;;;;;5.50;2.88;;;10.60;99.90;;;;;;8189260;28;20028;-77
2023/03/23 04:50:13;;;;;;;4.97;2.58;;;10.60;99.90;;;;;;8189847;28;20035;-77
2023/03/23 04:54:14;;;;;;;3.85;2.42;;;10.70;99.90;;;;;;8195542;28;20034;-77
2023/03/23 04:58:15;;;;;;;5.00;2.78;;;10.80;99.90;;;;;;8179462;28;20531;-77
2023/03/23 05:02:17;;;;;;;4.88;2.53;;;10.80;99.90;;;;;;8183369;28;20561;-76
2023/03/23 05:06:17;;;;;;;4.68;2.50;;;10.80;99.90;;;;;;8183003;28;20034;-77
2023/03/23 05:10:18;;;;;;;4.15;2.47;;;10.80;99.90;;;;;;8182982;28;20085;-76
2023/03/23 05:14:18;;;;;;;3.72;2.55;;;10.70;99.90;;;;;;8206951;28;20090;-77
2023/03/23 05:18:22;;;;;;;3.65;2.20;;;10.80;99.90;;;;;;8182043;28;20030;-77
2023/03/23 05:22:23;;;;;;;5.65;2.38;;;10.80;99.90;;;;;;8190528;28;20122;-77
2023/03/23 05:26:24;;;;;;;5.78;2.35;;;10.90;99.90;;;;;;8198408;28;20102;-76
2023/03/23 05:30:25;;;;;;;4.35;2.67;;;11.00;99.90;;;;;;8182233;28;20078;-76
2023/03/23 05:34:26;;;;;;;3.58;2.13;;;11.00;99.90;;;;;;8180698;28;20078;-77
2023/03/23 05:38:27;;;;;;;3.50;2.20;;;11.20;99.90;;;;;;8196014;28;20027;-76
2023/03/23 05:42:28;;;;;;;4.18;3.00;;;11.20;99.90;;;;;;8190092;28;20117;-76
2023/03/23 05:46:29;;;;;;;4.78;2.95;;;11.30;99.90;;;;;;8198085;28;20038;-76
2023/03/23 05:50:29;;;;;;;5.50;2.70;;;11.40;99.90;;;;;;8194488;28;20409;-77
2023/03/23 05:54:30;;;;;;;4.03;2.55;;;11.40;99.90;;;;;;8184471;28;20050;-77
2023/03/23 05:58:31;;;;;;;4.18;2.38;;;11.50;99.90;;;;;;8225800;28;20049;-77
2023/03/23 06:02:32;;;;;;;4.50;2.60;;;11.70;99.90;;;;;;8203749;28;20031;-77
2023/03/23 06:06:32;;;;;;;3.65;2.40;;;11.50;99.90;;;;;;8196614;28;20074;-78
2023/03/23 06:10:36;;;;;;;3.70;1.90;;;11.60;99.90;;;;;;8208507;28;20030;-77
2023/03/23 06:14:37;;;;;;;5.13;2.15;;;11.70;99.90;;;;;;8188126;28;20115;-78
2023/03/23 06:18:40;;;;;;;4.07;1.95;;;12.00;99.90;;;;;;8183914;28;20122;-78
2023/03/23 06:22:40;;;;;;;2.78;1.90;;;12.20;99.90;;;;;;8181557;28;20037;-78
2023/03/23 06:26:41;;;;;;;4.78;1.90;;;12.50;99.90;;;;;;8198933;28;20411;-78
2023/03/23 06:30:42;;;;;;;3.53;2.03;;;12.70;99.90;;;;;;8205964;28;20102;-77
2023/03/23 06:34:44;;;;;;;2.33;1.77;;;12.90;99.90;;;;;;8182492;28;20038;-78
2023/03/23 06:38:44;;;;;;;2.40;1.67;;;13.00;99.90;;;;;;8198834;28;20019;-79
2023/03/23 06:42:45;;;;;;;3.15;1.85;;;13.10;99.90;;;;;;8194801;28;20019;-78
2023/03/23 06:46:46;;;;;;;3.15;2.10;;;13.20;99.90;;;;;;8199973;28;20062;-78
2023/03/23 06:50:46;;;;;;;3.42;2.10;;;13.20;99.90;;;;;;8177336;28;20050;-79
2023/03/23 06:54:47;;;;;;;5.00;2.17;;;13.20;99.90;;;;;;8198887;28;20034;-78
2023/03/23 06:58:48;;;;;;;3.05;2.10;;;13.20;99.90;;;;;;8181777;28;20135;-78
2023/03/23 07:02:48;;;;;;;2.55;2.00;;;13.20;99.90;;;;;;8197315;28;20030;-79
2023/03/23 07:06:49;;;;;;;4.15;2.10;;;13.40;99.90;;;;;;8181940;28;20062;-78
2023/03/23 07:10:54;;;;;;;2.78;1.92;;;13.70;99.90;;;;;;8199355;28;20031;-77
2023/03/23 07:14:56;;;;;;;4.18;2.38;;;14.00;99.90;;;;;;8199296;28;20054;-78
2023/03/23 07:18:57;;;;;;;3.30;2.28;;;14.40;99.90;;;;;;8207018;28;20492;-79
2023/03/23 07:22:58;;;;;;;4.40;2.30;;;14.70;99.90;;;;;;8200409;28;20416;-77
2023/03/23 07:26:58;;;;;;;3.03;2.10;;;14.70;99.90;;;;;;8200661;28;20500;-78
2023/03/23 07:30:59;;;;;;;2.03;1.70;;;14.60;99.90;;;;;;8199009;28;20035;-78
2023/03/23 07:35:00;;;;;;;3.13;2.00;;;14.80;99.90;;;;;;8180746;28;20027;-78
2023/03/23 07:39:00;;;;;;;2.47;1.65;;;14.70;99.90;;;;;;8181131;28;20347;-80
2023/03/23 07:43:03;;;;;;;3.60;1.88;;;14.70;99.90;;;;;;8181438;28;20054;-80
2023/03/23 07:47:03;;;;;;;2.65;1.67;;;14.80;99.90;;;;;;8198108;28;20062;-80
2023/03/23 07:51:06;;;;;;;2.50;1.50;;;14.80;99.90;;;;;;8179041;28;20066;-80
2023/03/23 07:55:09;;;;;;;4.20;2.00;;;14.90;99.90;;;;;;8177319;28;20031;-80
2023/03/23 07:59:09;;;;;;;1.88;1.40;;;15.20;99.90;;;;;;8197635;28;20035;-80
2023/03/23 08:03:10;;;;;;;2.92;1.80;;;15.50;99.90;;;;;;8196242;28;20027;-79
2023/03/23 08:07:12;;;;;;;3.13;1.67;;;15.60;99.90;;;;;;8179717;28;20027;-80
2023/03/23 08:11:15;;;;;;;2.13;1.70;;;15.90;99.90;;;;;;8200767;28;20408;-80
2023/03/23 08:15:15;;;;;;;3.35;1.75;;;16.00;99.90;;;;;;8179559;28;20038;-80
2023/03/23 08:19:16;;;;;;;3.08;1.58;;;16.10;99.90;;;;;;8180617;28;20484;-80
2023/03/23 08:23:16;;;;;;;3.22;1.55;;;15.80;99.90;;;;;;8179485;28;20028;-80
2023/03/23 08:27:17;;;;;;;2.75;1.50;;;15.70;99.90;;;;;;8196738;28;20038;-80
2023/03/23 08:31:18;;;;;;;2.13;1.50;;;15.50;99.90;;;;;;8196920;28;20042;-80
2023/03/23 08:35:19;;;;;;;1.92;1.33;;;15.50;99.90;;;;;;8178248;28;20022;-80
2023/03/23 08:39:22;;;;;;;2.22;1.67;;;15.70;99.90;;;;;;8179487;28;20118;-80
2023/03/23 08:43:23;;;;;;;2.70;1.60;;;16.20;99.90;;;;;;8196887;28;20122;-80
2023/03/23 08:47:23;;;;;;;5.30;1.70;;;16.50;99.90;;;;;;8178237;28;20031;-80
2023/03/23 08:51:25;;;;;;;2.03;1.42;;;16.60;99.90;;;;;;8177011;28;20019;-80
2023/03/23 08:55:26;;;;;;;2.63;1.67;;;17.10;99.90;;;;;;8177141;28;20114;-80
2023/03/23 08:59:26;;;;;;;2.85;1.40;;;17.50;99.90;;;;;;8178074;28;20046;-80
2023/03/23 09:03:28;;;;;;;3.38;1.55;;;17.90;99.90;;;;;;8177740;28;20122;-80
2023/03/23 09:07:28;;;;;;;2.47;1.88;;;17.70;99.90;;;;;;8182419;28;20031;-80
2023/03/23 09:11:29;;;;;;;2.08;1.60;;;17.80;99.90;;;;;;8178761;28;20484;-80
2023/03/23 09:15:29;;;;;;;2.75;1.55;;;17.70;99.90;;;;;;8185223;28;20027;-80
2023/03/23 09:19:32;;;;;;;2.58;1.60;;;17.90;99.90;;;;;;8186219;28;20110;-80
2023/03/23 09:23:33;;;;;;;1.98;1.40;;;18.10;99.90;;;;;;8205737;28;20038;-79
2023/03/23 09:27:36;;;;;;;2.60;1.40;;;18.10;99.90;;;;;;8194929;28;20472;-80
2023/03/23 09:31:38;;;;;;;2.15;1.55;;;17.80;99.90;;;;;;8178824;28;20031;-80
2023/03/23 09:35:41;;;;;;;4.47;1.30;;;18.10;99.90;;;;;;8180773;28;20023;-80
2023/03/23 09:39:41;;;;;;;2.28;1.50;;;18.00;99.90;;;;;;8201417;28;20035;-80
2023/03/23 09:44:07;;;;;;;3.63;1.40;;;18.10;99.90;;;;;;8178612;28;20101;-80
2023/03/23 09:48:30;;;;;;;1.80;1.23;;;18.40;99.90;;;;;;8200860;28;20035;-83
2023/03/23 09:52:46;;;;;;;1.95;1.20;;;18.60;99.90;;;;;;8177062;28;20031;-80
2023/03/23 09:56:47;;;;;;;4.75;1.13;;;19.00;99.90;;;;;;8184063;28;20027;-80
2023/03/23 10:01:24;;;;;;;1.55;1.15;;;18.90;99.90;;;;;;8183356;28;20034;-80
2023/03/23 10:05:41;;;;;;;3.58;1.00;;;19.20;99.90;;;;;;8198822;28;20023;-80
2023/03/23 10:09:43;;;;;;;2.80;1.15;;;18.90;99.90;;;;;;8182086;28;20070;-80
2023/03/23 10:14:21;;;;;;;1.55;1.13;;;19.10;99.90;;;;;;8181725;28;20114;-79
2023/03/23 10:18:51;;;;;;;2.05;1.05;;;19.00;99.90;;;;;;8199447;28;20035;-80
2023/03/23 10:23:10;;;;;;;1.00;0.90;;;19.10;99.90;;;;;;8159370;28;20175;-80
2023/03/23 10:27:16;;;;;;;2.20;1.23;;;19.10;99.90;;;;;;8182078;28;20031;-80
2023/03/23 10:31:23;;;;;;;1.50;1.20;;;19.10;99.90;;;;;;8197809;28;20027;-80
2023/03/23 10:35:33;;;;;;;1.50;1.10;;;19.50;99.90;;;;;;8200763;28;20508;-80
2023/03/23 10:39:45;;;;;;;3.13;1.38;;;18.90;99.90;;;;;;8199133;28;20031;-80
2023/03/23 10:43:50;;;;;;;1.55;0.90;;;18.40;99.90;;;;;;8181840;28;20066;-80
2023/03/23 10:48:05;;;;;;;1.80;1.00;;;18.10;99.90;;;;;;8199237;28;20027;-80
2023/03/23 10:52:27;;;;;;;1.40;0.80;;;18.00;99.90;;;;;;8182893;28;20023;-80
2023/03/23 10:56:34;;;;;;;1.10;1.00;;;18.40;99.90;;;;;;8199021;28;20028;-80
2023/03/23 11:00:44;;;;;;;1.25;1.00;;;18.40;99.90;;;;;;8180943;28;20054;-80
2023/03/23 11:05:01;;;;;;;1.73;1.10;;;18.80;99.90;;;;;;8181724;28;20031;-80
2023/03/23 11:09:15;;;;;;;2.25;1.05;;;19.40;99.90;;;;;;8199477;28;20518;-80
2023/03/23 11:13:17;;;;;;;1.05;0.77;;;19.50;99.90;;;;;;8195850;28;20027;-80
2023/03/23 11:17:26;;;;;;;1.70;1.10;;;19.60;99.30;;;;;;8179577;28;20039;-81
2023/03/23 11:21:27;;;;;;;1.63;1.08;;;19.50;99.90;;;;;;8195234;28;20510;-80
2023/03/23 11:25:28;;;;;;;2.08;1.08;;;19.70;99.90;;;;;;8179919;28;20055;-80
2023/03/23 11:29:30;;;;;;;1.90;1.05;;;20.50;99.00;;;;;;8198675;28;20488;-80
2023/03/23 11:33:38;;;;;;;4.20;1.25;;;20.60;96.80;;;;;;8181443;28;20027;-80
2023/03/23 11:37:46;;;;;;;1.63;1.20;;;20.20;99.50;;;;;;8181534;28;20047;-81
2023/03/23 11:41:47;;;;;;;8.27;1.40;;;19.90;98.90;;;;;;8181602;28;20125;-80
2023/03/23 11:46:11;;;;;;;3.53;1.25;;;19.90;98.50;;;;;;8180602;28;20031;-79
2023/03/23 11:50:20;;;;;;;1.17;0.85;;;19.30;98.90;;;;;;8180504;28;20031;-80
2023/03/23 11:54:33;;;;;;;3.03;1.30;;;19.00;99.60;;;;;;8188821;28;20114;-80
2023/03/23 11:58:35;;;;;;;3.10;1.33;;;19.00;99.90;;;;;;8177358;28;20082;-80
2023/03/23 12:02:54;;;;;;;1.50;1.10;;;18.80;99.90;;;;;;8179342;28;20111;-80
2023/03/23 12:07:19;;;;;;;2.00;1.23;;;19.10;99.90;;;;;;8194340;28;20035;-80
2023/03/23 12:11:49;;;;;;;2.78;1.50;;;19.60;99.90;;;;;;8180950;28;20035;-79
2023/03/23 12:16:27;;;;;;;1.80;1.17;;;20.00;99.90;;;;;;8175591;28;20605;-79
2023/03/23 12:20:42;;;;;;;1.58;1.20;;;21.30;96.20;;;;;;8195991;28;20031;-79
2023/03/23 12:24:52;;;;;;;1.85;1.38;;;21.50;96.70;;;;;;8196302;28;20027;-82
2023/03/23 12:29:32;;;;;;;2.03;1.50;;;21.60;95.70;;;;;;8188446;28;20135;-79
2023/03/23 12:34:01;;;;;;;1.73;1.30;;;21.20;95.10;;;;;;8196244;28;20392;-79
2023/03/23 12:38:11;;;;;;;1.98;1.48;;;19.90;95.10;;;;;;8198092;28;20126;-79
2023/03/23 12:42:23;;;;;;;2.47;1.50;;;18.70;98.40;;;;;;8195878;28;20058;-79
2023/03/23 12:46:42;;;;;;;2.00;1.38;;;18.40;98.90;;;;;;8205024;28;20499;-79
2023/03/23 12:50:58;;;;;;;3.30;1.58;;;18.40;98.70;;;;;;8179212;28;20034;-79
2023/03/23 12:55:02;;;;;;;2.42;1.48;;;18.50;99.00;;;;;;8178748;28;20074;-79
2023/03/23 12:59:21;;;;;;;1.95;1.35;;;18.80;98.80;;;;;;8195583;28;20506;-79
2023/03/23 13:03:44;;;;;;;2.60;1.70;;;19.10;97.70;;;;;;8194323;28;20031;-80
2023/03/23 13:07:51;;;;;;;2.92;1.42;;;19.60;97.80;;;;;;8177914;28;20027;-80
2023/03/23 13:11:54;;;;;;;3.13;1.60;;;20.10;97.80;;;;;;8195594;28;20054;-79
2023/03/23 13:16:24;;;;;;;2.58;1.60;;;19.90;97.40;;;;;;8195402;28;20036;-80
2023/03/23 13:20:38;;;;;;;2.75;1.13;;;19.70;96.70;;;;;;8171033;28;20049;-80
2023/03/23 13:24:45;;;;;;;2.47;1.50;;;19.50;98.10;;;;;;8195730;28;20043;-80
2023/03/23 13:29:08;;;;;;;4.20;1.80;;;19.40;98.50;;;;;;8195835;28;20074;-80
2023/03/23 13:33:12;;;;;;;3.63;1.42;;;19.20;99.10;;;;;;8177565;28;20492;-80
2023/03/23 13:37:23;;;;;;;1.92;1.40;;;19.10;99.90;;;;;;8184768;28;20026;-80
2023/03/23 13:41:24;;;;;;;5.13;1.50;;;19.10;98.50;;;;;;8178673;28;20023;-79
2023/03/23 13:45:30;;;;;;;2.53;1.52;;;19.10;99.80;;;;;;8194700;28;20340;-80
2023/03/23 13:49:32;;;;;;;4.05;1.55;;;19.00;98.00;;;;;;8197026;28;20059;-79
2023/03/23 13:53:49;;;;;;;3.78;1.70;;;18.70;99.90;;;;;;8172068;28;20038;-80
2023/03/23 13:57:56;;;;;;;2.40;1.60;;;18.60;99.90;;;;;;8191901;28;20447;-80
2023/03/23 14:02:31;;;;;;;2.33;1.52;;;18.00;99.90;;;;;;8177649;28;20031;-79
2023/03/23 14:06:35;;;;;;;2.42;1.70;;;17.50;99.90;;;;;;8176929;28;20504;-79
2023/03/23 14:10:43;;;;;;;2.47;1.65;;;17.20;99.90;;;;;;8176023;28;20027;-79
2023/03/23 14:14:47;;;;;;;3.03;1.50;;;17.10;99.90;;;;;;8193383;28;20039;-79
2023/03/23 14:18:55;;;;;;;4.78;1.63;;;17.00;99.90;;;;;;8192885;28;20034;-79
2023/03/23 14:22:56;;;;;;;2.70;1.77;;;16.80;99.90;;;;;;8175031;28;20531;-80
2023/03/23 14:27:20;;;;;;;2.53;1.58;;;16.50;99.90;;;;;;8176628;28;20038;-79
2023/03/23 14:31:24;;;;;;;3.08;1.50;;;16.70;99.90;;;;;;8179271;28;20027;-80
2023/03/23 14:35:36;;;;;;;2.20;1.65;;;16.50;99.90;;;;;;8200570;28;20024;-80
2023/03/23 14:39:37;;;;;;;2.75;1.73;;;16.60;99.90;;;;;;8183310;28;20118;-79
2023/03/23 14:43:37;;;;;;;2.45;1.70;;;16.40;99.90;;;;;;8183851;28;20027;-79
2023/03/23 14:47:43;;;;;;;4.55;1.50;;;16.30;99.90;;;;;;8183181;28;20532;-80
2023/03/23 14:51:52;;;;;;;1.88;1.52;;;16.30;99.90;;;;;;8182950;28;20019;-79
2023/03/23 14:55:55;;;;;;;4.45;1.60;;;16.20;99.90;;;;;;8198858;28;20062;-79
2023/03/23 14:59:56;;;;;;;4.05;1.88;;;15.70;99.90;;;;;;8183020;28;20506;-79
2023/03/23 15:04:09;;;;;;;2.92;1.90;;;15.50;99.90;;;;;;8200569;28;20027;-79
2023/03/23 15:08:15;;;;;;;2.35;1.65;;;15.10;99.90;;;;;;8183166;28;20035;-79
2023/03/23 15:12:25;;;;;;;2.40;1.90;;;14.90;99.90;;;;;;8184084;28;20031;-79
2023/03/23 15:16:29;;;;;;;2.72;1.85;;;15.00;99.90;;;;;;8184722;28;20110;-79
2023/03/23 15:20:43;;;;;;;2.97;2.08;;;14.80;99.90;;;;;;8182780;28;20464;-78
2023/03/23 15:24:44;;;;;;;3.17;1.70;;;15.20;99.90;;;;;;8183790;28;20070;-79
2023/03/23 15:28:44;;;;;;;3.13;1.88;;;15.10;99.90;;;;;;8181804;28;20041;-79
2023/03/23 15:32:45;;;;;;;3.75;1.80;;;15.20;99.90;;;;;;8199359;28;20021;-79
2023/03/23 15:36:52;;;;;;;4.43;1.83;;;15.30;99.90;;;;;;8198391;28;20285;-79
2023/03/23 15:40:55;;;;;;;3.28;1.98;;;15.30;99.90;;;;;;8196121;28;20023;-80
2023/03/23 15:45:15;;;;;;;3.53;2.00;;;15.20;99.90;;;;;;8197279;28;20072;-80
2023/03/23 15:49:16;;;;;;;3.03;1.55;;;15.30;99.90;;;;;;8198541;28;20036;-80
2023/03/23 15:53:50;;;;;;;2.42;1.40;;;15.50;99.90;;;;;;8179158;28;20031;-80
2023/03/23 15:57:52;;;;;;;3.05;1.70;;;15.50;99.90;;;;;;8173762;28;20043;-80
2023/03/23 16:01:53;;;;;;;2.97;1.70;;;15.50;99.90;;;;;;8180262;28;20573;-79
2023/03/23 16:05:56;;;;;;;2.33;1.40;;;15.60;99.90;;;;;;8181359;28;20174;-79
2023/03/23 16:09:56;;;;;;;1.73;1.30;;;15.50;99.90;;;;;;8199236;28;20090;-79
2023/03/23 16:13:57;;;;;;;2.40;1.65;;;15.30;99.90;;;;;;8180289;28;20019;-80
2023/03/23 16:17:58;;;;;;;4.05;1.80;;;15.30;99.90;;;;;;8181461;28;20035;-79
2023/03/23 16:21:59;;;;;;;2.45;1.70;;;15.20;99.90;;;;;;8197696;28;20047;-79
2023/03/23 16:25:59;;;;;;;2.53;1.58;;;15.10;99.90;;;;;;8178954;28;20118;-79
2023/03/23 16:30:02;;;;;;;2.88;1.73;;;15.10;99.90;;;;;;8196837;28;20027;-79
2023/03/23 16:34:02;;;;;;;1.75;1.60;;;15.00;99.90;;;;;;8180289;28;20020;-80
2023/03/23 16:38:04;;;;;;;2.10;1.75;;;15.00;99.90;;;;;;8197916;28;20069;-80
2023/03/23 16:42:04;;;;;;;3.35;2.17;;;14.90;99.90;;;;;;8179637;28;20526;-80
2023/03/23 16:46:05;;;;;;;7.78;5.32;;;14.90;99.90;;;;;;8196536;28;20028;-80
2023/03/23 16:50:10;;;;;;;5.95;3.70;;;14.70;99.90;;;;;;8179493;28;20035;-80
2023/03/23 16:54:11;;;;;;;3.38;1.95;;;14.60;99.90;;;;;;8195437;28;20078;-80
2023/03/23 16:58:11;;;;;;;4.18;1.70;;;14.40;99.90;;;;;;8231352;23;20488;-78
2023/03/23 17:02:12;;;;;;;2.80;1.75;;;14.30;99.90;;;;;;8195897;28;20063;-78
2023/03/23 17:06:12;;;;;;;4.43;2.00;;;14.30;99.90;;;;;;8192625;28;20035;-78
2023/03/23 17:10:14;;;;;;;3.63;2.05;;;14.30;99.90;;;;;;8194538;28;20035;-78
2023/03/23 17:14:15;;;;;;;2.40;1.75;;;14.30;99.90;;;;;;8193236;28;20066;-78
2023/03/23 17:18:15;;;;;;;3.80;2.08;;;14.10;99.90;;;;;;8190463;28;20039;-76
2023/03/23 17:22:16;;;;;;;2.60;1.70;;;13.90;99.90;;;;;;8174500;28;20028;-78
2023/03/23 17:26:17;;;;;;;2.70;2.00;;;13.70;99.90;;;;;;8181105;28;20027;-79
2023/03/23 17:30:18;;;;;;;3.45;1.95;;;13.60;99.90;;;;;;8203470;28;20404;-78
2023/03/23 17:34:18;;;;;;;3.10;2.00;;;13.50;99.90;;;;;;8197732;28;20416;-79
2023/03/23 17:38:19;;;;;;;3.42;2.50;;;13.40;99.90;;;;;;8193185;28;20031;-79
2023/03/23 17:42:22;;;;;;;3.53;2.30;;;13.30;99.90;;;;;;8199241;28;20047;-78
2023/03/23 17:46:23;;;;;;;5.45;2.47;;;13.10;99.90;;;;;;8200374;28;20038;-78
2023/03/23 17:50:23;;;;;;;5.95;3.38;;;13.00;99.90;;;;;;8196192;28;20098;-79
2023/03/23 17:54:25;;;;;;;3.33;2.50;;;12.90;99.90;;;;;;8198023;28;20135;-79
2023/03/23 17:58:26;;;;;;;3.45;2.47;;;13.00;99.90;;;;;;8187193;28;20046;-80
2023/03/23 18:02:26;;;;;;;4.50;2.97;;;13.00;99.90;;;;;;8189950;28;20031;-77
2023/03/23 18:06:27;;;;;;;4.38;2.40;;;13.00;99.90;;;;;;8208301;28;20053;-76
2023/03/23 18:10:27;;;;;;;4.03;2.38;;;12.80;99.90;;;;;;8217417;28;20063;-77
2023/03/23 18:14:28;;;;;;;5.47;3.05;;;12.70;99.90;;;;;;8215196;28;20015;-76
2023/03/23 18:18:29;;;;;;;4.82;2.47;;;12.80;99.90;;;;;;8207564;28;20034;-76
2023/03/23 18:22:30;;;;;;;3.17;2.55;;;13.00;99.90;;;;;;8195234;28;20526;-76
2023/03/23 18:26:30;;;;;;;3.75;2.17;;;12.80;99.90;;;;;;8204318;28;20039;-77
2023/03/23 18:30:32;;;;;;;3.85;2.60;;;12.50;99.90;;;;;;8165767;28;20129;-76
2023/03/23 18:34:35;;;;;;;6.90;2.72;;;12.90;99.90;;;;;;8186155;28;20035;-77
2023/03/23 18:38:35;;;;;;;5.55;3.58;;;13.10;99.90;;;;;;8210239;28;20719;-76
2023/03/23 18:42:38;;;;;;;4.40;3.00;;;12.70;99.90;;;;;;8213676;28;20031;-77
2023/03/23 18:46:39;;;;;;;5.07;3.20;;;12.50;99.90;;;;;;8201124;28;20026;-77
2023/03/23 18:50:39;;;;;;;4.47;2.83;;;12.40;99.90;;;;;;8203927;28;20185;-76
2023/03/23 18:54:43;;;;;;;4.30;2.65;;;12.40;99.90;;;;;;8203628;28;20026;-76
2023/03/23 18:58:44;;;;;;;4.40;2.90;;;12.40;99.90;;;;;;8203449;28;20030;-76
2023/03/23 19:02:46;;;;;;;4.93;2.53;;;12.40;99.90;;;;;;8208115;28;20515;-76
2023/03/23 19:06:47;;;;;;;4.97;2.63;;;12.50;99.90;;;;;;8203085;28;20026;-77
2023/03/23 19:10:47;;;;;;;3.38;2.30;;;12.70;99.90;;;;;;8204158;28;20034;-77
2023/03/23 19:14:50;;;;;;;4.90;2.65;;;12.80;99.90;;;;;;8205962;28;20046;-76
2023/03/23 19:18:50;;;;;;;3.65;2.45;;;13.00;99.90;;;;;;8196156;28;20031;-76
2023/03/23 19:22:51;;;;;;;3.97;2.97;;;12.80;99.90;;;;;;8188168;28;20138;-76
2023/03/23 19:26:51;;;;;;;3.63;2.40;;;12.60;99.90;;;;;;8209206;28;20027;-76
2023/03/23 19:30:56;;;;;;;3.47;2.70;;;12.60;99.90;;;;;;8211169;28;20026;-77
2023/03/23 19:34:57;;;;;;;3.47;2.50;;;12.70;99.90;;;;;;8204371;28;20027;-76
2023/03/23 19:38:58;;;;;;;2.78;2.40;;;12.70;99.90;;;;;;8209025;28;20093;-78
2023/03/23 19:42:58;;;;;;;5.30;2.53;;;12.50;99.90;;;;;;8201121;28;20039;-76
2023/03/23 19:46:59;;;;;;;3.50;2.33;;;12.40;99.90;;;;;;8187527;28;20034;-76
2023/03/23 19:51:00;;;;;;;3.47;2.25;;;12.50;99.90;;;;;;8200480;28;20022;-76
2023/03/23 19:55:01;;;;;;;3.70;2.50;;;12.70;99.90;;;;;;8192265;28;20559;-77
2023/03/23 19:59:01;;;;;;;4.97;2.67;;;12.70;99.90;;;;;;8198036;28;20050;-76
2023/03/23 20:03:02;;;;;;;3.25;2.30;;;12.70;99.90;;;;;;8195536;28;20027;-76
2023/03/23 20:07:04;;;;;;;4.28;2.65;;;12.50;99.90;;;;;;8200516;28;20046;-77
2023/03/23 20:11:16;;;;;;;7.80;2.55;;;12.60;99.90;;;;;;8182234;28;20031;-77
2023/03/23 20:15:16;;;;;;;7.50;2.90;;;12.70;99.90;;;;;;8184453;28;20607;-77
2023/03/23 20:19:17;;;;;;;4.03;2.80;;;12.50;99.90;;;;;;8192459;28;20082;-75
2023/03/23 20:23:17;;;;;;;4.57;2.97;;;12.70;99.90;;;;;;8195901;28;20064;-76
2023/03/23 20:27:18;;;;;;;3.55;2.67;;;12.60;99.90;;;;;;8180264;28;20748;-76
2023/03/23 20:31:23;;;;;;;3.78;2.75;;;12.30;99.90;;;;;;8184335;28;20118;-76
2023/03/23 20:35:23;;;;;;;7.38;4.63;;;12.30;99.90;;;;;;8198629;28;20114;-76
2023/03/23 20:39:28;;;;;;;6.07;3.63;;;12.30;99.90;;;;;;8196442;28;20027;-78
2023/03/23 20:43:28;;;;;;;3.80;2.80;;;12.40;99.90;;;;;;8195263;28;20412;-76
2023/03/23 20:47:30;;;;;;;7.82;3.28;;;12.30;99.90;;;;;;8195059;28;20019;-77
2023/03/23 20:51:32;;;;;;;7.95;3.20;;;12.40;99.90;;;;;;8195584;28;20058;-76
2023/03/23 20:55:32;;;;;;;4.78;3.40;;;12.40;99.90;;;;;;8195068;28;20571;-77
2023/03/23 20:59:34;;;;;;;5.63;3.35;;;12.30;99.90;;;;;;8189560;28;20027;-76
2023/03/23 21:03:37;;;;;;;5.60;2.63;;;12.20;99.90;;;;;;8204605;28;20054;-76
2023/03/23 21:07:38;;;;;;;5.05;3.10;;;12.30;99.90;;;;;;8213874;28;20015;-76
2023/03/23 21:11:38;;;;;;;7.95;3.83;;;12.40;99.90;;;;;;8211114;28;20033;-78
2023/03/23 21:15:39;;;;;;;5.97;3.35;;;12.20;99.90;;;;;;8209126;28;20046;-79